createdAt,value
2018-03-06T00:00:42.146Z,15.43
2018-03-06T00:03:10.996Z,11.30
2018-03-06T00:05:39.868Z,13.23
2018-03-06T00:08:08.800Z,14.23
2018-03-06T00:10:37.648Z,14.93
2018-03-06T00:13:06.517Z,13.97
2018-03-06T00:15:35.412Z,13.60
2018-03-06T00:18:04.290Z,11.83
2018-03-06T00:20:33.138Z,14.10
2018-03-06T00:23:02.075Z,13.57
2018-03-06T00:25:31.052Z,12.83
2018-03-06T00:27:59.907Z,12.67
2018-03-06T00:30:28.832Z,14.07
2018-03-06T00:32:57.692Z,13.67
2018-03-06T00:35:26.554Z,13.30
2018-03-06T00:37:55.436Z,17.63
2018-03-06T00:40:24.308Z,13.43
2018-03-06T00:42:53.164Z,15.43
2018-03-06T00:45:22.051Z,13.27
2018-03-06T00:47:51.874Z,14.77
2018-03-06T00:50:20.743Z,14.17
2018-03-06T00:52:49.632Z,13.27
2018-03-06T00:55:19.144Z,12.03
2018-03-06T00:57:48.012Z,14.87
2018-03-06T01:00:16.963Z,12.80
2018-03-06T01:02:45.904Z,12.93
2018-03-06T01:05:14.804Z,13.77
2018-03-06T01:07:43.678Z,12.97
2018-03-06T01:10:12.616Z,14.53
2018-03-06T01:12:41.490Z,12.27
2018-03-06T01:15:10.384Z,12.83
2018-03-06T01:17:39.244Z,14.33
2018-03-06T01:20:08.146Z,13.33
2018-03-06T01:22:37.014Z,11.60
2018-03-06T01:25:05.872Z,14.43
2018-03-06T01:27:34.760Z,15.43
2018-03-06T01:30:03.670Z,15.97
2018-03-06T01:32:32.534Z,16.00
2018-03-06T01:35:01.445Z,13.77
2018-03-06T01:37:30.315Z,14.67
2018-03-06T01:39:59.168Z,20.03
2018-03-06T01:42:28.055Z,14.83
2018-03-06T01:44:56.909Z,15.87
2018-03-06T01:47:25.792Z,13.87
2018-03-06T01:49:54.729Z,16.60
2018-03-06T01:52:23.578Z,16.87
2018-03-06T01:54:52.455Z,16.17
2018-03-06T01:57:21.387Z,17.10
2018-03-06T01:59:50.282Z,20.30
2018-03-06T02:02:19.150Z,18.73
2018-03-06T02:04:48.070Z,15.80
2018-03-06T02:07:16.928Z,16.43
2018-03-06T02:09:45.804Z,21.63
2018-03-06T02:12:14.730Z,17.00
2018-03-06T02:14:43.639Z,19.17
2018-03-06T02:17:12.463Z,19.93
2018-03-06T02:19:41.372Z,16.40
2018-03-06T02:22:10.240Z,17.60
2018-03-06T02:27:14.426Z,19.67
2018-03-06T02:29:43.276Z,20.60
2018-03-06T02:32:12.194Z,18.07
2018-03-06T02:34:41.106Z,16.97
2018-03-06T02:37:10.045Z,19.23
2018-03-06T02:39:39.820Z,20.67
2018-03-06T02:42:08.702Z,21.00
2018-03-06T02:44:37.565Z,19.27
2018-03-06T02:47:06.429Z,19.10
2018-03-06T02:49:35.318Z,19.80
2018-03-06T02:52:04.182Z,18.90
2018-03-06T02:54:33.641Z,18.50
2018-03-06T02:57:02.502Z,17.07
2018-03-06T02:59:31.386Z,22.17
2018-03-06T03:02:00.240Z,16.90
2018-03-06T03:04:29.358Z,19.20
2018-03-06T03:06:58.597Z,21.27
2018-03-06T03:09:27.480Z,18.87
2018-03-06T03:11:56.350Z,19.43
2018-03-06T03:14:25.227Z,19.83
2018-03-06T03:16:54.084Z,22.43
2018-03-06T03:19:22.994Z,18.03
2018-03-06T03:21:51.892Z,21.10
2018-03-06T03:24:20.779Z,21.07
2018-03-06T03:26:49.649Z,18.63
2018-03-06T03:29:18.786Z,21.07
2018-03-06T03:31:47.685Z,21.10
2018-03-06T03:34:16.542Z,17.33
2018-03-06T03:36:46.206Z,16.77
2018-03-06T03:39:15.065Z,20.97
2018-03-06T03:41:43.929Z,19.77
2018-03-06T03:44:12.906Z,18.23
2018-03-06T03:46:41.797Z,16.10
2018-03-06T03:49:10.684Z,19.53
2018-03-06T03:51:40.061Z,14.93
2018-03-06T03:54:08.931Z,19.03
2018-03-06T03:56:37.855Z,21.43
2018-03-06T03:59:06.740Z,17.97
2018-03-06T04:01:35.642Z,17.63
2018-03-06T04:04:04.561Z,17.80
2018-03-06T04:06:33.459Z,18.43
2018-03-06T04:09:02.347Z,20.53
2018-03-06T04:11:31.207Z,19.33
2018-03-06T04:14:00.110Z,23.37
2018-03-06T04:16:28.993Z,19.00
2018-03-06T04:18:57.882Z,17.07
2018-03-06T04:21:26.771Z,18.60
2018-03-06T04:23:55.684Z,19.90
2018-03-06T04:26:24.581Z,16.37
2018-03-06T04:28:53.447Z,19.87
2018-03-06T04:31:22.335Z,20.83
2018-03-06T04:33:51.191Z,19.87
2018-03-06T04:36:20.078Z,14.20
2018-03-06T04:38:48.955Z,17.83
2018-03-06T04:41:17.850Z,17.50
2018-03-06T04:43:46.738Z,16.63
2018-03-06T04:46:15.630Z,17.57
2018-03-06T04:48:44.550Z,18.27
2018-03-06T04:51:13.466Z,20.00
2018-03-06T04:53:42.387Z,15.43
2018-03-06T04:56:12.188Z,16.93
2018-03-06T04:58:41.091Z,20.00
2018-03-06T05:01:09.987Z,13.53
2018-03-06T05:03:39.767Z,18.57
2018-03-06T05:06:08.651Z,22.23
2018-03-06T05:08:37.523Z,16.97
2018-03-06T05:11:06.450Z,21.23
2018-03-06T05:13:35.267Z,17.70
2018-03-06T05:16:04.146Z,23.17
2018-03-06T05:18:33.091Z,13.13
2018-03-06T05:21:01.975Z,25.50
2018-03-06T05:23:30.851Z,16.07
2018-03-06T05:26:00.659Z,22.30
2018-03-06T05:28:29.536Z,22.60
2018-03-06T05:30:58.401Z,25.03
2018-03-06T05:33:27.311Z,22.00
2018-03-06T05:35:56.169Z,26.53
2018-03-06T05:38:25.027Z,24.00
2018-03-06T05:40:53.913Z,23.00
2018-03-06T05:43:22.812Z,26.77
2018-03-06T05:45:52.607Z,22.17
2018-03-06T05:48:21.865Z,22.33
2018-03-06T05:50:50.793Z,19.87
2018-03-06T05:53:19.695Z,21.07
2018-03-06T05:55:48.573Z,22.87
2018-03-06T05:58:17.485Z,21.43
2018-03-06T06:00:46.391Z,25.57
2018-03-06T06:03:15.255Z,22.50
2018-03-06T06:05:44.117Z,23.83
2018-03-06T06:08:13.033Z,22.47
2018-03-06T06:10:41.892Z,23.83
2018-03-06T06:13:10.779Z,31.63
2018-03-06T06:15:39.696Z,29.47
2018-03-06T06:18:08.555Z,32.93
2018-03-06T06:20:37.409Z,32.07
2018-03-06T06:23:06.283Z,40.57
2018-03-06T06:25:35.143Z,38.00
2018-03-06T06:28:04.055Z,35.83
2018-03-06T06:30:32.971Z,29.73
2018-03-06T06:33:01.890Z,28.80
2018-03-06T06:35:31.645Z,25.20
2018-03-06T06:38:01.251Z,25.17
2018-03-06T06:40:30.113Z,16.23
2018-03-06T06:42:59.083Z,25.23
2018-03-06T06:45:27.937Z,28.77
2018-03-06T06:47:56.783Z,25.97
2018-03-06T06:50:25.663Z,20.43
2018-03-06T06:52:54.505Z,24.57
2018-03-06T06:55:23.372Z,25.23
2018-03-06T06:57:52.259Z,23.77
2018-03-06T07:00:21.098Z,24.23
2018-03-06T07:02:49.963Z,26.77
2018-03-06T07:05:22.618Z,28.47
2018-03-06T07:07:51.914Z,26.60
2018-03-06T07:10:21.364Z,26.70
2018-03-06T07:12:56.565Z,25.13
2018-03-06T07:15:25.455Z,27.50
2018-03-06T07:20:28.973Z,24.80
2018-03-06T07:22:57.867Z,25.67
2018-03-06T07:25:26.829Z,25.00
2018-03-06T07:27:55.767Z,28.20
2018-03-06T07:30:24.607Z,26.10
2018-03-06T07:32:53.455Z,25.90
2018-03-06T07:35:25.312Z,27.20
2018-03-06T07:37:55.051Z,27.80
2018-03-06T07:40:23.905Z,26.50
2018-03-06T07:45:31.855Z,27.93
2018-03-06T07:48:01.778Z,27.60
2018-03-06T07:50:31.103Z,28.33
2018-03-06T07:53:00.564Z,23.83
2018-03-06T07:55:29.461Z,24.10
2018-03-06T07:57:59.171Z,22.33
2018-03-06T08:00:28.016Z,23.67
2018-03-06T08:02:56.899Z,23.13
2018-03-06T08:05:25.770Z,24.07
2018-03-06T08:07:54.993Z,24.03
2018-03-06T08:10:23.874Z,25.00
2018-03-06T08:12:52.763Z,21.60
2018-03-06T08:15:21.678Z,23.10
2018-03-06T08:17:51.935Z,25.73
2018-03-06T08:20:22.552Z,26.83
2018-03-06T08:22:51.426Z,21.50
2018-03-06T08:25:21.956Z,21.23
2018-03-06T08:27:51.974Z,21.20
2018-03-06T08:30:20.906Z,21.93
2018-03-06T08:32:49.785Z,19.27
2018-03-06T08:35:18.756Z,21.10
2018-03-06T08:37:47.607Z,21.00
2018-03-06T08:40:16.545Z,19.83
2018-03-06T08:42:46.332Z,18.33
2018-03-06T08:45:15.212Z,19.10
2018-03-06T08:47:44.987Z,18.63
2018-03-06T08:50:13.859Z,20.13
2018-03-06T08:52:42.699Z,20.07
2018-03-06T08:55:11.559Z,20.00
2018-03-06T08:57:40.457Z,18.40
2018-03-06T09:00:09.767Z,15.50
2018-03-06T09:02:38.673Z,17.07
2018-03-06T09:05:07.536Z,17.27
2018-03-06T09:07:36.402Z,18.33
2018-03-06T09:10:05.291Z,16.97
2018-03-06T09:12:34.160Z,14.07
2018-03-06T09:15:04.455Z,12.97
2018-03-06T09:17:33.327Z,13.93
2018-03-06T09:20:02.185Z,15.17
2018-03-06T09:22:33.176Z,13.10
2018-03-06T09:25:03.214Z,11.33
2018-03-06T09:27:32.067Z,12.20
2018-03-06T09:30:00.928Z,12.67
2018-03-06T09:32:29.804Z,11.90
2018-03-06T09:34:58.657Z,14.03
2018-03-06T09:37:27.584Z,14.33
2018-03-06T09:39:56.456Z,12.00
2018-03-06T09:42:25.299Z,13.80
2018-03-06T09:44:54.142Z,11.03
2018-03-06T09:47:23.068Z,12.57
2018-03-06T09:49:51.972Z,12.63
2018-03-06T09:52:20.885Z,14.67
2018-03-06T09:54:49.736Z,14.53
2018-03-06T09:57:18.626Z,15.30
2018-03-06T09:59:47.504Z,14.47
2018-03-06T10:02:16.391Z,12.80
2018-03-06T10:04:45.269Z,14.27
2018-03-06T10:07:14.122Z,14.27
2018-03-06T10:09:42.995Z,15.27
2018-03-06T10:12:11.846Z,13.50
2018-03-06T10:14:40.696Z,17.30
2018-03-06T10:17:09.697Z,15.10
2018-03-06T10:19:39.038Z,13.77
2018-03-06T10:22:07.895Z,15.40
2018-03-06T10:24:36.778Z,14.20
2018-03-06T10:27:05.668Z,12.30
2018-03-06T10:29:34.536Z,13.37
2018-03-06T10:32:03.409Z,12.13
2018-03-06T10:34:32.278Z,11.17
2018-03-06T10:37:01.112Z,14.07
2018-03-06T10:39:30.042Z,15.03
2018-03-06T10:41:59.369Z,12.23
2018-03-06T10:44:28.256Z,12.10
2018-03-06T10:46:57.121Z,12.53
2018-03-06T10:49:25.964Z,16.40
2018-03-06T10:51:54.840Z,14.13
2018-03-06T10:54:23.786Z,14.93
2018-03-06T10:56:52.631Z,14.17
2018-03-06T10:59:21.502Z,11.97
2018-03-06T11:01:50.354Z,15.43
2018-03-06T11:04:19.200Z,14.57
2018-03-06T11:06:48.080Z,17.07
2018-03-06T11:09:16.938Z,16.23
2018-03-06T11:11:45.880Z,17.97
2018-03-06T11:14:14.816Z,14.90
2018-03-06T11:16:43.648Z,14.73
2018-03-06T11:19:13.108Z,14.30
2018-03-06T11:21:41.962Z,13.87
2018-03-06T11:24:10.877Z,15.47
2018-03-06T11:26:40.603Z,15.70
2018-03-06T11:29:09.467Z,14.73
2018-03-06T11:31:38.312Z,13.83
2018-03-06T11:34:07.188Z,13.87
2018-03-06T11:36:36.084Z,21.87
2018-03-06T11:39:04.988Z,16.00
2018-03-06T11:41:33.877Z,14.67
2018-03-06T11:44:02.793Z,14.30
2018-03-06T11:46:31.656Z,14.23
2018-03-06T11:49:00.550Z,14.53
2018-03-06T11:51:29.411Z,13.73
2018-03-06T11:53:58.274Z,18.33
2018-03-06T11:56:27.154Z,12.30
2018-03-06T11:58:56.043Z,14.60
2018-03-06T12:01:24.888Z,12.53
2018-03-06T12:03:54.420Z,13.27
2018-03-06T12:06:23.256Z,15.67
2018-03-06T12:08:52.148Z,12.47
2018-03-06T12:11:21.028Z,12.23
2018-03-06T12:13:49.890Z,11.20
2018-03-06T12:16:19.144Z,13.67
2018-03-06T12:18:48.002Z,12.77
2018-03-06T12:21:16.840Z,10.90
2018-03-06T12:23:45.714Z,12.40
2018-03-06T12:26:14.580Z,13.67
2018-03-06T12:28:43.457Z,13.33
2018-03-06T12:31:12.296Z,11.83
2018-03-06T12:33:41.268Z,12.40
2018-03-06T12:36:10.178Z,15.97
2018-03-06T12:38:39.046Z,12.90
2018-03-06T12:41:07.920Z,12.70
2018-03-06T12:43:36.776Z,14.23
2018-03-06T12:46:05.660Z,11.60
2018-03-06T12:48:34.554Z,13.77
2018-03-06T12:51:03.418Z,11.20
2018-03-06T12:53:32.284Z,12.20
2018-03-06T12:56:01.203Z,12.43
2018-03-06T12:58:30.072Z,12.90
2018-03-06T13:00:59.614Z,11.17
2018-03-06T13:03:28.486Z,13.93
2018-03-06T13:05:57.333Z,11.63
2018-03-06T13:08:26.202Z,11.87
2018-03-06T13:10:55.072Z,13.07
2018-03-06T13:13:23.939Z,12.27
2018-03-06T13:15:52.833Z,11.07
2018-03-06T13:18:22.109Z,11.57
2018-03-06T13:20:50.970Z,11.93
2018-03-06T13:23:19.848Z,12.20
2018-03-06T13:25:48.716Z,9.73
2018-03-06T13:28:17.584Z,12.37
2018-03-06T13:30:46.480Z,10.93
2018-03-06T13:33:15.336Z,11.50
2018-03-06T13:35:44.219Z,11.83
2018-03-06T13:38:13.604Z,14.57
2018-03-06T13:40:42.463Z,12.70
2018-03-06T13:43:11.317Z,11.10
2018-03-06T13:45:40.766Z,12.53
2018-03-06T13:48:11.195Z,10.67
2018-03-06T13:50:40.097Z,10.37
2018-03-06T13:53:09.750Z,10.93
2018-03-06T13:55:39.503Z,10.13
2018-03-06T13:58:08.884Z,10.30
2018-03-06T14:00:39.927Z,9.03
2018-03-06T14:03:08.801Z,9.17
2018-03-06T14:05:39.086Z,8.57
2018-03-06T14:08:08.858Z,8.17
2018-03-06T14:10:39.265Z,7.57
2018-03-06T14:13:08.777Z,10.27
2018-03-06T14:15:39.397Z,10.87
2018-03-06T14:18:09.392Z,7.50
2018-03-06T14:20:39.843Z,6.57
2018-03-06T14:23:08.724Z,7.00
2018-03-06T14:25:38.741Z,6.90
2018-03-06T14:28:08.503Z,7.23
2018-03-06T14:30:37.339Z,8.40
2018-03-06T14:33:06.262Z,8.20
2018-03-06T14:35:35.093Z,8.37
2018-03-06T14:38:03.935Z,11.03
2018-03-06T14:40:33.808Z,9.97
2018-03-06T14:43:03.394Z,9.87
2018-03-06T14:45:32.309Z,8.53
2018-03-06T14:48:01.228Z,8.50
2018-03-06T14:50:30.085Z,7.97
2018-03-06T14:52:59.576Z,9.13
2018-03-06T14:55:28.456Z,8.90
2018-03-06T14:57:57.335Z,8.50
2018-03-06T15:00:26.210Z,8.73
2018-03-06T15:02:55.237Z,10.67
2018-03-06T15:05:24.200Z,6.47
2018-03-06T15:07:53.121Z,7.13
2018-03-06T15:10:33.394Z,7.17
2018-03-06T15:13:02.297Z,6.17
2018-03-06T15:15:31.264Z,10.03
2018-03-06T15:18:00.230Z,8.40
2018-03-06T15:20:29.131Z,9.43
2018-03-06T15:22:57.991Z,8.37
2018-03-06T15:25:27.627Z,7.07
2018-03-06T15:27:56.482Z,7.67
2018-03-06T15:30:25.628Z,8.23
2018-03-06T15:32:54.890Z,8.90
2018-03-06T15:35:23.783Z,12.80
2018-03-06T15:37:52.742Z,7.90
2018-03-06T15:40:21.739Z,7.20
2018-03-06T15:42:50.666Z,6.93
2018-03-06T15:45:20.669Z,6.90
2018-03-06T15:47:49.576Z,7.53
2018-03-06T15:50:18.667Z,8.03
2018-03-06T15:52:47.574Z,7.47
2018-03-06T15:55:16.509Z,7.57
2018-03-06T15:57:45.482Z,7.53
2018-03-06T16:00:14.772Z,8.10
2018-03-06T16:02:43.706Z,7.37
2018-03-06T16:05:12.599Z,6.80
2018-03-06T16:07:41.882Z,8.70
2018-03-06T16:10:11.658Z,6.83
2018-03-06T16:12:40.964Z,10.37
2018-03-06T16:15:09.893Z,7.97
2018-03-06T16:17:39.064Z,7.00
2018-03-06T16:20:09.852Z,7.87
2018-03-06T16:22:38.795Z,6.80
2018-03-06T16:25:07.700Z,8.67
2018-03-06T16:27:36.592Z,7.40
2018-03-06T16:30:06.829Z,7.10
2018-03-06T16:32:36.503Z,8.90
2018-03-06T16:35:06.014Z,7.43
2018-03-06T16:37:35.786Z,7.17
2018-03-06T16:40:05.660Z,8.73
2018-03-06T16:42:35.209Z,7.17
2018-03-06T16:45:05.481Z,8.43
2018-03-06T16:47:35.028Z,6.70
2018-03-06T16:50:04.360Z,7.37
2018-03-06T16:52:35.980Z,8.33
2018-03-06T16:55:06.594Z,7.67
2018-03-06T16:57:36.187Z,6.63
2018-03-06T17:00:05.176Z,11.00
2018-03-06T17:02:35.630Z,54.00
2018-03-06T17:05:05.274Z,23.80
2018-03-06T17:07:34.960Z,15.13
2018-03-06T17:10:06.120Z,11.77
2018-03-06T17:12:35.490Z,10.97
2018-03-06T17:15:06.019Z,10.33
2018-03-06T17:17:35.222Z,10.97
2018-03-06T17:20:07.994Z,10.73
2018-03-06T17:22:36.939Z,10.17
2018-03-06T17:25:06.324Z,17.67
2018-03-06T17:27:36.506Z,20.07
2018-03-06T17:30:06.377Z,13.73
2018-03-06T17:32:35.633Z,13.03
2018-03-06T17:35:05.386Z,12.43
2018-03-06T17:37:36.059Z,11.20
2018-03-06T17:40:05.885Z,17.57
2018-03-06T17:42:35.888Z,12.43
2018-03-06T17:45:05.637Z,11.70
2018-03-06T17:47:36.040Z,11.20
2018-03-06T17:50:05.812Z,9.33
2018-03-06T17:52:35.612Z,11.47
2018-03-06T17:55:07.613Z,10.93
2018-03-06T17:57:36.542Z,9.27
2018-03-06T18:00:06.181Z,10.10
2018-03-06T18:02:35.215Z,11.27
2018-03-06T18:05:04.934Z,10.50
2018-03-06T18:07:33.842Z,10.73
2018-03-06T18:10:02.778Z,9.93
2018-03-06T18:12:31.908Z,10.80
2018-03-06T18:15:00.837Z,12.10
2018-03-06T18:17:31.653Z,13.63
2018-03-06T18:20:00.569Z,12.63
2018-03-06T18:22:29.495Z,12.90
2018-03-06T18:24:58.779Z,11.60
2018-03-06T18:27:27.702Z,13.60
2018-03-06T18:29:56.822Z,13.55
2018-03-06T18:32:25.818Z,12.87
2018-03-06T18:34:54.716Z,10.87
2018-03-06T18:37:23.641Z,13.00
2018-03-06T18:39:52.585Z,11.07
2018-03-06T18:42:21.512Z,12.43
2018-03-06T18:44:50.591Z,10.80
2018-03-06T18:47:20.288Z,12.73
2018-03-06T18:50:05.874Z,13.33
2018-03-06T18:52:34.753Z,12.37
2018-03-06T18:55:03.646Z,15.17
2018-03-06T18:57:32.580Z,12.87
2018-03-06T19:00:21.278Z,13.80
2018-03-06T19:02:55.904Z,11.67
2018-03-06T19:05:31.057Z,12.43
2018-03-06T19:07:59.976Z,14.17
2018-03-06T19:10:28.900Z,18.33
2018-03-06T19:12:57.812Z,14.30
2018-03-06T19:15:26.747Z,15.43
2018-03-06T19:17:55.627Z,13.93
2018-03-06T19:20:24.547Z,17.13
2018-03-06T19:22:53.610Z,15.33
2018-03-06T19:25:22.492Z,13.90
2018-03-06T19:27:51.966Z,14.53
2018-03-06T19:30:20.918Z,16.23
2018-03-06T19:32:49.884Z,15.33
2018-03-06T19:35:20.123Z,15.00
2018-03-06T19:37:49.117Z,12.27
2018-03-06T19:40:18.095Z,15.63
2018-03-06T19:42:47.313Z,16.27
2018-03-06T19:45:16.555Z,15.10
2018-03-06T19:47:45.730Z,15.80
2018-03-06T19:50:14.927Z,16.93
2018-03-06T19:52:43.839Z,17.30
2018-03-06T19:55:12.679Z,18.83
2018-03-06T19:57:41.557Z,20.27
2018-03-06T20:00:10.703Z,16.70
2018-03-06T20:02:40.514Z,16.17
2018-03-06T20:05:09.442Z,18.13
2018-03-06T20:07:39.107Z,20.87
2018-03-06T20:10:07.968Z,16.40
2018-03-06T20:12:37.069Z,17.90
2018-03-06T20:15:11.935Z,21.97
2018-03-06T20:17:41.079Z,20.50
2018-03-06T20:20:10.336Z,19.57
2018-03-06T20:22:39.457Z,22.77
2018-03-06T20:25:14.043Z,20.37
2018-03-06T20:27:43.166Z,20.57
2018-03-06T20:30:12.082Z,22.60
2018-03-06T20:32:47.402Z,20.33
2018-03-06T20:35:17.016Z,21.77
2018-03-06T20:40:25.589Z,22.37
2018-03-06T20:42:54.528Z,23.03
2018-03-06T20:45:23.486Z,31.97
2018-03-06T20:47:52.351Z,30.50
2018-03-06T20:50:21.312Z,32.93
2018-03-06T20:52:56.018Z,39.03
2018-03-06T20:55:24.938Z,31.77
2018-03-06T20:57:53.832Z,36.20
2018-03-06T21:00:22.731Z,33.27
2018-03-06T21:02:52.946Z,40.37
2018-03-06T21:05:22.100Z,34.00
2018-03-06T21:07:50.963Z,34.30
2018-03-06T21:10:20.037Z,33.70
2018-03-06T21:12:48.912Z,33.27
2018-03-06T21:15:17.822Z,31.60
2018-03-06T21:17:46.725Z,31.57
2018-03-06T21:20:15.941Z,32.77
2018-03-06T21:22:44.874Z,32.63
2018-03-06T21:25:13.744Z,29.60
2018-03-06T21:27:44.888Z,33.47
2018-03-06T21:30:13.833Z,35.83
2018-03-06T21:32:42.858Z,40.53
2018-03-06T21:35:13.690Z,33.67
2018-03-06T21:37:43.462Z,31.67
2018-03-06T21:40:12.358Z,27.83
2018-03-06T21:42:41.299Z,32.20
2018-03-06T21:45:10.234Z,28.70
2018-03-06T21:47:39.216Z,33.20
2018-03-06T21:50:08.126Z,30.83
2018-03-06T21:52:37.060Z,34.87
2018-03-06T21:55:05.930Z,29.87
2018-03-06T21:57:35.284Z,28.50
2018-03-06T22:00:05.570Z,28.60
2018-03-06T22:02:34.748Z,24.27
2018-03-06T22:05:03.649Z,23.23
2018-03-06T22:07:34.533Z,23.73
2018-03-06T22:10:03.412Z,33.93
2018-03-06T22:15:19.730Z,28.83
2018-03-06T22:17:49.494Z,32.50
2018-03-06T22:20:19.640Z,26.57
2018-03-06T22:22:49.293Z,32.97
2018-03-06T22:25:19.394Z,27.07
2018-03-06T22:27:49.304Z,29.97
2018-03-06T22:30:18.606Z,32.60
2018-03-06T22:32:47.744Z,32.40
2018-03-06T22:35:17.316Z,32.33
2018-03-06T22:37:46.984Z,29.30
2018-03-06T22:40:15.848Z,24.87
2018-03-06T22:42:44.824Z,30.83
2018-03-06T22:45:14.612Z,28.60
2018-03-06T22:47:43.472Z,20.30
2018-03-06T22:50:12.324Z,29.57
2018-03-06T22:52:41.220Z,29.67
2018-03-06T22:55:10.074Z,27.83
2018-03-06T22:57:39.573Z,29.93
2018-03-06T23:00:08.414Z,30.57
2018-03-06T23:02:37.306Z,28.60
2018-03-06T23:05:06.167Z,32.67
2018-03-06T23:07:35.000Z,35.93
2018-03-06T23:10:03.904Z,33.83
2018-03-06T23:15:16.929Z,27.20
2018-03-06T23:17:46.905Z,27.50
2018-03-06T23:22:56.041Z,33.60
2018-03-06T23:25:24.967Z,39.30
2018-03-06T23:27:54.660Z,41.23
2018-03-06T23:30:23.533Z,41.63
2018-03-06T23:32:53.216Z,36.37
2018-03-06T23:35:22.071Z,43.63
2018-03-06T23:37:51.676Z,42.87
2018-03-06T23:40:21.176Z,43.10
2018-03-06T23:42:50.018Z,31.37
2018-03-06T23:45:19.056Z,41.03
2018-03-06T23:47:47.992Z,43.37
2018-03-06T23:50:16.946Z,42.13
2018-03-06T23:52:45.806Z,46.23
2018-03-06T23:55:14.689Z,43.53
2018-03-06T23:57:43.576Z,45.40
